Time;durP1;ratioP1;P1;durP2;ratioP2;P2;SDS_P1;SDS_P2;PMS_P1;PMS_P2;Temp;Humidity;BMP_temperature;BMP_pressure;BME280_temperature;BME280_humidity;BME280_pressure;Samples;Min_cycle;Max_cycle;Signal;HPM_P1;HPM_P2
2022/09/29 00:01:26;;;;;;;32.45;13.50;;;14.70;99.90;;;;;;5077765;28;20040;-55
2022/09/29 00:03:52;;;;;;;29.02;12.07;;;14.70;99.90;;;;;;5077849;28;20104;-55
2022/09/29 00:06:18;;;;;;;29.92;12.07;;;14.70;99.90;;;;;;5077803;28;20385;-55
2022/09/29 00:08:45;;;;;;;31.58;12.23;;;14.70;99.90;;;;;;5077755;28;20086;-55
2022/09/29 00:11:15;;;;;;;29.98;11.70;;;14.70;99.90;;;;;;5077803;28;20025;-55
2022/09/29 00:13:41;;;;;;;29.17;11.43;;;14.80;99.90;;;;;;5077691;28;20090;-55
2022/09/29 00:16:08;;;;;;;31.63;12.82;;;14.80;99.90;;;;;;5077770;28;20028;-55
2022/09/29 00:18:34;;;;;;;35.13;12.90;;;14.80;99.90;;;;;;5077751;28;20470;-55
2022/09/29 00:21:07;;;;;;;27.73;11.75;;;14.80;99.90;;;;;;5077395;28;20386;-55
2022/09/29 00:23:34;;;;;;;31.13;12.50;;;14.70;99.90;;;;;;5077842;28;20036;-55
2022/09/29 00:26:10;;;;;;;28.48;11.20;;;14.60;99.90;;;;;;5095628;28;20034;-55
2022/09/29 00:28:38;;;;;;;23.85;11.15;;;14.70;99.90;;;;;;5097677;28;20042;-55
2022/09/29 00:31:05;;;;;;;30.10;12.05;;;14.70;99.90;;;;;;5098107;28;20039;-55
2022/09/29 00:33:34;;;;;;;28.45;12.18;;;14.70;99.90;;;;;;5097664;28;20209;-55
2022/09/29 00:36:07;;;;;;;22.52;11.30;;;14.60;99.90;;;;;;5097529;28;20031;-55
2022/09/29 00:38:34;;;;;;;21.73;10.73;;;14.70;99.90;;;;;;5097465;28;20504;-55
2022/09/29 00:41:00;;;;;;;23.63;10.60;;;14.60;99.90;;;;;;5096246;28;20044;-55
2022/09/29 00:43:57;;;;;;;25.13;10.93;;;14.60;99.90;;;;;;5097419;28;20035;-54
2022/09/29 00:46:28;;;;;;;21.40;9.88;;;14.50;99.90;;;;;;5082696;28;20082;-55
2022/09/29 00:48:58;;;;;;;28.17;10.23;;;14.50;99.90;;;;;;5077246;28;20032;-55
2022/09/29 00:51:26;;;;;;;26.48;10.88;;;14.60;99.90;;;;;;5077031;28;20428;-54
2022/09/29 00:53:52;;;;;;;18.92;10.13;;;14.50;99.90;;;;;;5077069;28;20355;-55
2022/09/29 00:56:19;;;;;;;21.23;10.13;;;14.60;99.90;;;;;;5076970;28;20378;-55
2022/09/29 00:58:57;;;;;;;17.77;10.07;;;14.60;99.90;;;;;;5077107;28;20036;-55
2022/09/29 01:01:27;;;;;;;25.05;11.68;;;14.60;99.90;;;;;;5076659;28;20031;-55
2022/09/29 01:03:59;;;;;;;28.38;12.27;;;14.50;99.90;;;;;;5076706;28;20036;-55
2022/09/29 01:06:33;;;;;;;28.02;11.48;;;14.40;99.90;;;;;;5076965;28;20029;-55
2022/09/29 01:09:03;;;;;;;71.95;26.15;;;14.50;99.90;;;;;;5076819;28;20029;-55
2022/09/29 01:11:30;;;;;;;53.65;20.05;;;14.60;99.90;;;;;;5076542;28;20040;-55
2022/09/29 01:14:02;;;;;;;27.60;12.95;;;14.50;99.90;;;;;;5076884;28;20040;-55
2022/09/29 01:16:29;;;;;;;25.10;11.95;;;14.50;99.90;;;;;;5076855;28;20039;-55
2022/09/29 01:18:57;;;;;;;24.15;11.68;;;14.40;99.90;;;;;;5076524;28;20066;-55
2022/09/29 01:21:47;;;;;;;28.25;10.98;;;14.40;99.90;;;;;;5076597;28;20028;-55
2022/09/29 01:24:55;;;;;;;24.92;11.45;;;14.50;99.90;;;;;;5079441;28;20481;-55
2022/09/29 01:27:39;;;;;;;30.75;12.00;;;14.30;99.90;;;;;;5096703;28;20032;-54
2022/09/29 01:30:27;;;;;;;38.55;14.75;;;14.40;99.90;;;;;;5096690;28;20032;-54
2022/09/29 01:33:20;;;;;;;46.88;21.02;;;14.30;99.90;;;;;;5054822;28;20039;-55
2022/09/29 01:35:58;;;;;;;44.13;18.52;;;14.30;99.90;;;;;;5096376;28;20074;-55
2022/09/29 01:38:35;;;;;;;39.33;16.67;;;14.30;99.90;;;;;;5096620;28;20036;-54
2022/09/29 01:41:30;;;;;;;32.75;13.63;;;14.40;99.90;;;;;;5096289;28;20027;-54
2022/09/29 01:44:01;;;;;;;37.85;15.40;;;14.30;99.90;;;;;;5078527;28;20040;-54
2022/09/29 01:46:32;;;;;;;36.25;13.82;;;14.30;99.90;;;;;;5080758;28;20060;-55
2022/09/29 01:48:59;;;;;;;;;;;14.20;99.90;;;;;;5076599;28;20465;-54
2022/09/29 01:51:36;;;;;;;31.83;12.57;;;14.20;99.90;;;;;;5076053;28;19952;-55
2022/09/29 01:54:08;;;;;;;26.40;12.27;;;14.30;99.90;;;;;;5075899;28;20037;-55
2022/09/29 01:56:34;;;;;;;36.20;15.85;;;14.40;99.90;;;;;;5075677;28;20180;-55
2022/09/29 01:59:20;;;;;;;25.95;11.75;;;14.40;99.90;;;;;;5075830;28;20028;-55
2022/09/29 02:01:49;;;;;;;26.48;11.35;;;14.30;99.90;;;;;;5075724;28;20133;-55
2022/09/29 02:04:23;;;;;;;25.42;10.57;;;14.30;99.90;;;;;;5075741;28;20036;-55
2022/09/29 02:07:01;;;;;;;36.53;12.02;;;14.40;99.90;;;;;;5075556;28;20020;-55
2022/09/29 02:09:35;;;;;;;38.55;14.52;;;14.30;99.90;;;;;;5075565;28;20029;-55
2022/09/29 02:12:02;;;;;;;38.75;12.65;;;14.40;99.90;;;;;;5075042;28;20049;-55
2022/09/29 02:14:34;;;;;;;27.05;12.25;;;14.40;99.90;;;;;;5075512;28;20170;-55
2022/09/29 02:17:18;;;;;;;33.20;12.30;;;14.40;99.90;;;;;;5075401;28;20048;-55
2022/09/29 02:19:46;;;;;;;27.40;11.40;;;14.30;99.90;;;;;;5075373;28;20024;-55
2022/09/29 02:22:13;;;;;;;25.65;11.15;;;14.40;99.90;;;;;;5075240;28;20045;-55
2022/09/29 02:24:39;;;;;;;29.63;11.00;;;14.40;99.90;;;;;;5082046;28;20024;-55
2022/09/29 02:27:06;;;;;;;26.75;11.45;;;14.50;99.90;;;;;;5095810;28;20023;-55
2022/09/29 02:29:34;;;;;;;30.80;11.77;;;14.40;99.90;;;;;;5095440;28;20028;-55
2022/09/29 02:32:02;;;;;;;31.08;12.73;;;14.40;99.90;;;;;;5095370;28;20032;-55
2022/09/29 02:34:31;;;;;;;47.60;19.67;;;14.30;99.90;;;;;;5095410;28;20028;-55
2022/09/29 02:37:21;;;;;;;45.70;16.17;;;14.30;99.90;;;;;;5095365;28;20024;-55
2022/09/29 02:40:17;;;;;;;41.85;17.00;;;14.30;99.90;;;;;;5095311;28;20032;-55
2022/09/29 02:43:14;;;;;;;48.15;19.25;;;14.30;99.90;;;;;;5064307;28;20036;-55
2022/09/29 02:45:46;;;;;;;42.33;17.13;;;14.40;99.90;;;;;;5086202;28;20028;-55
2022/09/29 02:48:43;;;;;;;39.85;16.48;;;14.40;99.90;;;;;;5074865;28;20024;-55
2022/09/29 02:51:09;;;;;;;37.85;14.80;;;14.40;99.90;;;;;;5074934;28;20050;-55
2022/09/29 02:53:49;;;;;;;33.50;12.80;;;14.40;99.90;;;;;;5074792;28;20060;-55
2022/09/29 02:56:53;;;;;;;31.20;12.65;;;14.30;99.90;;;;;;5074750;28;20032;-55
2022/09/29 02:59:26;;;;;;;28.58;11.75;;;14.20;99.90;;;;;;5074679;28;20031;-55
2022/09/29 03:01:55;;;;;;;29.67;11.25;;;14.20;99.90;;;;;;5074982;28;20036;-55
2022/09/29 03:04:23;;;;;;;20.63;10.85;;;14.20;99.90;;;;;;5074628;28;20125;-55
2022/09/29 03:06:50;;;;;;;21.48;9.10;;;14.30;99.90;;;;;;5074677;28;20017;-55
2022/09/29 03:09:16;;;;;;;27.63;9.65;;;14.30;99.90;;;;;;5074497;28;20016;-55
2022/09/29 03:11:42;;;;;;;17.83;7.45;;;14.20;99.90;;;;;;5074443;28;20054;-55
2022/09/29 03:14:08;;;;;;;19.05;8.43;;;14.20;99.90;;;;;;5074573;28;20474;-55
2022/09/29 03:16:35;;;;;;;24.73;8.45;;;14.20;99.90;;;;;;5074530;28;20029;-55
2022/09/29 03:19:04;;;;;;;16.75;8.38;;;14.10;99.90;;;;;;5074419;28;20024;-55
2022/09/29 03:21:30;;;;;;;18.23;7.38;;;14.10;99.90;;;;;;5074442;28;20037;-55
2022/09/29 03:23:56;;;;;;;25.30;11.02;;;14.10;99.90;;;;;;5074465;28;20466;-55
2022/09/29 03:26:23;;;;;;;23.60;10.88;;;14.10;99.90;;;;;;5094752;28;20055;-55
2022/09/29 03:28:50;;;;;;;23.83;11.73;;;14.10;99.90;;;;;;5094633;28;20492;-55
2022/09/29 03:31:16;;;;;;;25.17;10.32;;;14.20;99.90;;;;;;5094532;28;20328;-55
2022/09/29 03:33:42;;;;;;;15.63;8.10;;;14.30;99.90;;;;;;5094885;28;20036;-55
2022/09/29 03:36:10;;;;;;;18.90;7.03;;;14.30;99.90;;;;;;5094638;28;20109;-54
2022/09/29 03:38:36;;;;;;;21.40;6.70;;;14.30;99.90;;;;;;5094219;28;20659;-54
2022/09/29 03:41:03;;;;;;;17.88;6.47;;;14.30;99.90;;;;;;5094392;28;20044;-55
2022/09/29 03:43:29;;;;;;;16.35;6.88;;;14.30;99.90;;;;;;5094447;28;20035;-55
2022/09/29 03:45:56;;;;;;;12.85;5.88;;;14.30;99.90;;;;;;5083500;28;20413;-55
2022/09/29 03:48:22;;;;;;;21.08;6.32;;;14.40;99.90;;;;;;5074260;28;20031;-54
2022/09/29 03:50:50;;;;;;;26.15;8.20;;;14.40;99.90;;;;;;5074173;28;20502;-55
2022/09/29 03:53:17;;;;;;;17.48;6.15;;;14.40;99.90;;;;;;5074094;28;20024;-55
2022/09/29 03:55:47;;;;;;;16.38;6.30;;;14.30;99.90;;;;;;5074077;28;20028;-55
2022/09/29 03:58:14;;;;;;;20.52;6.85;;;14.40;99.90;;;;;;5074220;28;20042;-54
2022/09/29 04:00:40;;;;;;;21.77;6.55;;;14.40;99.90;;;;;;5074011;28;20036;-55
2022/09/29 04:03:06;;;;;;;15.02;5.25;;;14.50;99.90;;;;;;5073980;28;20066;-55
2022/09/29 04:05:33;;;;;;;15.23;4.65;;;14.30;99.90;;;;;;5073815;28;20134;-55
2022/09/29 04:07:59;;;;;;;20.73;5.75;;;14.30;99.90;;;;;;5073998;28;20079;-55
2022/09/29 04:10:25;;;;;;;11.70;5.05;;;14.30;99.90;;;;;;5073971;28;20052;-55
2022/09/29 04:12:51;;;;;;;14.52;5.65;;;14.20;99.90;;;;;;5073831;28;20052;-55
2022/09/29 04:15:17;;;;;;;13.45;5.82;;;14.30;99.90;;;;;;5073943;28;20028;-55
2022/09/29 04:17:43;;;;;;;22.75;6.50;;;14.40;99.90;;;;;;5073870;28;20170;-54
2022/09/29 04:20:09;;;;;;;16.67;6.63;;;14.30;99.90;;;;;;5073684;28;20041;-55
2022/09/29 04:22:34;;;;;;;27.77;9.18;;;14.30;99.90;;;;;;5074187;28;20039;-55
2022/09/29 04:25:00;;;;;;;24.92;8.77;;;14.30;99.90;;;;;;5083299;28;20032;-54
2022/09/29 04:27:26;;;;;;;17.15;6.93;;;14.30;99.90;;;;;;5094036;28;20020;-55
2022/09/29 04:29:52;;;;;;;18.02;6.70;;;14.10;99.90;;;;;;5094270;28;20087;-55
2022/09/29 04:32:18;;;;;;;18.08;7.90;;;14.10;99.90;;;;;;5094014;28;20024;-54
2022/09/29 04:34:44;;;;;;;25.50;8.73;;;14.00;99.90;;;;;;5095941;28;20078;-55
2022/09/29 04:37:10;;;;;;;16.27;7.68;;;14.10;99.90;;;;;;5097647;28;20451;-54
2022/09/29 04:39:36;;;;;;;18.65;8.15;;;14.10;99.90;;;;;;5097560;28;20028;-55
2022/09/29 04:42:02;;;;;;;19.85;8.57;;;14.10;99.90;;;;;;5097628;28;20046;-55
2022/09/29 04:44:28;;;;;;;27.05;8.75;;;14.00;99.90;;;;;;5097321;28;20028;-55
2022/09/29 04:46:54;;;;;;;21.85;8.00;;;14.10;99.90;;;;;;5078351;28;20025;-55
2022/09/29 04:49:20;;;;;;;23.58;8.35;;;14.00;99.90;;;;;;5077033;28;20047;-55
2022/09/29 04:51:46;;;;;;;22.15;8.45;;;13.90;99.90;;;;;;5077118;28;20062;-55
2022/09/29 04:54:12;;;;;;;34.03;12.23;;;13.90;99.90;;;;;;5077125;28;20033;-55
2022/09/29 04:56:38;;;;;;;20.02;8.07;;;13.80;99.90;;;;;;5076878;28;20044;-55
2022/09/29 04:59:04;;;;;;;22.15;8.13;;;13.80;99.90;;;;;;5076805;28;20024;-55
2022/09/29 05:01:31;;;;;;;26.30;10.35;;;13.80;99.90;;;;;;5076921;28;20033;-55
2022/09/29 05:03:57;;;;;;;24.20;9.95;;;13.80;99.90;;;;;;5076666;28;20429;-55
2022/09/29 05:06:23;;;;;;;20.13;8.30;;;13.90;99.90;;;;;;5076852;28;20024;-55
2022/09/29 05:08:49;;;;;;;27.27;9.95;;;13.80;99.90;;;;;;5084408;28;20481;-55
2022/09/29 05:11:15;;;;;;;23.08;8.95;;;13.90;99.90;;;;;;5094924;28;20409;-55
2022/09/29 05:13:41;;;;;;;24.73;9.18;;;13.90;99.90;;;;;;5096738;28;20391;-55
2022/09/29 05:16:07;;;;;;;29.92;8.95;;;13.80;99.90;;;;;;5070621;28;20078;-55
2022/09/29 05:18:33;;;;;;;30.48;9.60;;;14.00;99.90;;;;;;5062011;28;20112;-54
2022/09/29 05:21:06;;;;;;;26.50;9.45;;;14.00;99.90;;;;;;5056373;28;20089;-54
2022/09/29 05:23:32;;;;;;;26.02;9.77;;;14.10;99.90;;;;;;5054349;28;20051;-55
2022/09/29 05:26:07;;;;;;;21.77;8.95;;;14.20;99.90;;;;;;5070758;28;20056;-54
2022/09/29 05:28:34;;;;;;;20.50;7.60;;;14.20;99.90;;;;;;5058496;28;20542;-55
2022/09/29 05:31:06;;;;;;;19.17;7.90;;;14.20;99.90;;;;;;5072953;28;20059;-55
2022/09/29 05:33:33;;;;;;;21.48;8.20;;;14.30;99.90;;;;;;5067673;28;20515;-55
2022/09/29 05:35:59;;;;;;;23.85;8.32;;;14.30;99.90;;;;;;5066899;28;20115;-55
2022/09/29 05:38:25;;;;;;;21.52;7.70;;;14.20;99.90;;;;;;5056343;28;20028;-55
2022/09/29 05:40:51;;;;;;;22.48;7.88;;;14.30;99.90;;;;;;5074816;28;20498;-55
2022/09/29 05:43:20;;;;;;;23.10;8.32;;;14.40;99.90;;;;;;5076093;28;20036;-55
2022/09/29 05:45:46;;;;;;;19.00;8.73;;;14.50;99.90;;;;;;5067697;28;20094;-55
2022/09/29 05:48:12;;;;;;;21.95;9.48;;;14.60;99.90;;;;;;5069670;28;20036;-55
2022/09/29 05:50:42;;;;;;;23.88;9.75;;;14.60;99.90;;;;;;5076010;28;20082;-55
2022/09/29 05:53:08;;;;;;;27.38;11.10;;;14.70;99.90;;;;;;5075618;28;20021;-55
2022/09/29 05:55:38;;;;;;;33.70;12.05;;;14.80;99.90;;;;;;5074384;28;20032;-55
2022/09/29 05:58:05;;;;;;;42.95;12.20;;;15.00;99.90;;;;;;5065714;28;20029;-55
2022/09/29 06:00:32;;;;;;;43.30;14.25;;;15.20;99.90;;;;;;5063455;28;20036;-55
2022/09/29 06:03:01;;;;;;;32.85;11.05;;;15.40;99.90;;;;;;5074820;28;20035;-55
2022/09/29 06:05:31;;;;;;;34.83;12.63;;;15.50;99.90;;;;;;5069186;28;20028;-55
2022/09/29 06:07:57;;;;;;;37.80;12.52;;;15.60;99.90;;;;;;5061105;28;20418;-55
2022/09/29 06:10:23;;;;;;;40.92;15.85;;;15.70;99.90;;;;;;5054891;28;20025;-55
2022/09/29 06:12:49;;;;;;;37.08;13.45;;;15.80;99.90;;;;;;5070481;28;20048;-55
2022/09/29 06:15:15;;;;;;;40.20;13.40;;;15.80;99.90;;;;;;5071304;28;20028;-54
2022/09/29 06:17:41;;;;;;;46.03;14.57;;;15.90;99.90;;;;;;5056018;28;20025;-55
2022/09/29 06:20:08;;;;;;;36.05;11.95;;;16.00;99.90;;;;;;5069795;28;20051;-55
2022/09/29 06:22:33;;;;;;;35.25;11.90;;;16.10;99.90;;;;;;5064458;28;20553;-55
2022/09/29 06:24:59;;;;;;;27.95;9.80;;;16.20;99.90;;;;;;5069460;28;20132;-54
2022/09/29 06:27:26;;;;;;;39.55;12.15;;;16.20;99.90;;;;;;5071010;28;20029;-55
2022/09/29 06:29:53;;;;;;;51.40;14.77;;;16.10;99.90;;;;;;5067368;28;20033;-55
2022/09/29 06:32:18;;;;;;;41.78;13.30;;;16.20;99.90;;;;;;5074825;28;20040;-55
2022/09/29 06:37:35;;;;;;;48.15;16.83;;;16.40;99.90;;;;;;5054591;28;20088;-55
2022/09/29 06:40:03;;;;;;;61.63;17.23;;;16.50;99.90;;;;;;5070150;28;20064;-55
2022/09/29 06:42:29;;;;;;;59.95;14.65;;;16.60;99.90;;;;;;5070293;28;20034;-55
2022/09/29 06:44:56;;;;;;;45.35;14.00;;;16.70;99.90;;;;;;5067785;28;20024;-55
2022/09/29 06:47:22;;;;;;;48.90;15.13;;;16.80;99.90;;;;;;5071124;28;20425;-55
2022/09/29 06:49:49;;;;;;;55.28;15.32;;;16.90;99.90;;;;;;5065929;28;20024;-55
2022/09/29 06:52:15;;;;;;;36.75;13.45;;;17.00;99.90;;;;;;5073807;28;20036;-55
2022/09/29 06:54:41;;;;;;;45.35;14.23;;;17.20;99.90;;;;;;5073581;28;20120;-55
2022/09/29 06:57:08;;;;;;;47.15;14.05;;;17.20;99.90;;;;;;5072663;28;20056;-55
2022/09/29 06:59:34;;;;;;;45.45;13.93;;;17.40;99.90;;;;;;5069204;28;20036;-55
2022/09/29 07:02:01;;;;;;;57.30;14.82;;;17.50;99.90;;;;;;5069806;28;20505;-55
2022/09/29 07:04:28;;;;;;;47.28;11.75;;;17.50;99.90;;;;;;5073831;28;20028;-55
2022/09/29 07:06:53;;;;;;;50.72;13.18;;;17.50;99.90;;;;;;5072365;28;20059;-55
2022/09/29 07:09:20;;;;;;;48.17;12.65;;;17.50;99.90;;;;;;5073152;28;20029;-55
2022/09/29 07:11:49;;;;;;;39.38;12.02;;;17.50;99.90;;;;;;5064053;28;20082;-55
2022/09/29 07:14:16;;;;;;;82.90;15.07;;;17.50;99.90;;;;;;5071059;28;20036;-55
2022/09/29 07:16:43;;;;;;;63.90;14.40;;;17.50;99.90;;;;;;5074287;28;20040;-55
2022/09/29 07:19:09;;;;;;;57.70;12.50;;;17.40;99.90;;;;;;5073519;28;20039;-55
2022/09/29 07:21:39;;;;;;;59.17;13.25;;;17.30;99.90;;;;;;5070156;28;20545;-55
2022/09/29 07:24:05;;;;;;;40.35;12.35;;;17.30;99.90;;;;;;5076278;28;20497;-55
2022/09/29 07:26:31;;;;;;;61.05;16.40;;;17.30;99.90;;;;;;5077613;28;20359;-55
2022/09/29 07:28:57;;;;;;;55.53;12.70;;;17.30;99.90;;;;;;5066553;28;20020;-55
2022/09/29 07:31:23;;;;;;;51.20;13.48;;;17.70;99.90;;;;;;5074692;28;20024;-55
2022/09/29 07:33:50;;;;;;;66.55;15.77;;;18.40;99.90;;;;;;5073523;28;20545;-55
2022/09/29 07:36:17;;;;;;;62.45;16.05;;;19.00;99.90;;;;;;5073221;28;20043;-55
2022/09/29 07:38:51;;;;;;;53.28;14.80;;;20.20;99.90;;;;;;5069176;28;20086;-55
2022/09/29 07:41:19;;;;;;;44.05;13.25;;;20.80;99.90;;;;;;5074102;28;20025;-55
2022/09/29 07:43:45;;;;;;;45.47;13.50;;;22.10;99.90;;;;;;5073010;28;20098;-55
2022/09/29 07:46:11;;;;;;;35.80;10.93;;;21.90;98.60;;;;;;5073877;28;20016;-55
2022/09/29 07:48:38;;;;;;;34.28;13.07;;;22.70;98.00;;;;;;5073709;28;20023;-55
2022/09/29 07:51:16;;;;;;;50.13;17.42;;;23.20;96.80;;;;;;5073667;28;20104;-55
2022/09/29 07:53:42;;;;;;;43.05;13.63;;;23.90;93.90;;;;;;5073287;28;20056;-55
2022/09/29 07:56:11;;;;;;;49.92;14.82;;;24.20;93.60;;;;;;5069010;28;20025;-55
2022/09/29 07:58:38;;;;;;;61.90;15.20;;;24.50;90.50;;;;;;5072923;28;20028;-55
2022/09/29 08:01:09;;;;;;;27.67;11.05;;;24.90;85.00;;;;;;5074801;28;20032;-55
2022/09/29 08:03:38;;;;;;;;;;;24.80;83.30;;;;;;5074962;28;20025;-56
2022/09/29 08:06:05;;;;;;;30.00;10.48;;;25.30;80.20;;;;;;5074620;28;19915;-56
2022/09/29 08:08:31;;;;;;;30.52;9.73;;;24.70;81.20;;;;;;5074897;28;20100;-56
2022/09/29 08:11:09;;;;;;;40.72;10.65;;;25.20;79.00;;;;;;5077511;28;20059;-56
2022/09/29 08:13:39;;;;;;;29.52;10.63;;;25.10;78.80;;;;;;5077458;28;20436;-56
2022/09/29 08:16:08;;;;;;;27.80;9.63;;;25.50;78.70;;;;;;5077894;28;20038;-56
2022/09/29 08:18:34;;;;;;;36.03;9.63;;;25.80;79.60;;;;;;5077425;28;20265;-56
2022/09/29 08:21:01;;;;;;;25.83;6.95;;;26.10;77.40;;;;;;5077286;28;20032;-56
2022/09/29 08:23:27;;;;;;;19.58;5.88;;;26.60;73.50;;;;;;5077402;28;20105;-56
2022/09/29 08:26:04;;;;;;;40.60;9.00;;;26.30;69.40;;;;;;5068119;28;20086;-56
2022/09/29 08:28:32;;;;;;;9.35;3.95;;;26.10;68.30;;;;;;5067411;28;20466;-56
2022/09/29 08:31:08;;;;;;;15.90;5.50;;;26.70;64.60;;;;;;5070186;28;20387;-56
2022/09/29 08:33:35;;;;;;;20.85;5.78;;;27.30;62.90;;;;;;5061060;28;20024;-56
2022/09/29 08:36:04;;;;;;;50.03;17.88;;;28.20;61.40;;;;;;5076768;28;20029;-56
2022/09/29 08:38:31;;;;;;;21.17;8.52;;;28.50;58.00;;;;;;5070574;28;20450;-56
2022/09/29 08:41:04;;;;;;;20.35;4.82;;;27.90;55.50;;;;;;5077140;28;20020;-56
2022/09/29 08:43:39;;;;;;;12.95;3.38;;;27.50;55.60;;;;;;5077115;28;20024;-56
2022/09/29 08:46:25;;;;;;;5.25;2.20;;;27.80;56.50;;;;;;5074381;28;20032;-56
2022/09/29 08:48:52;;;;;;;14.73;3.95;;;27.40;56.20;;;;;;5075544;28;20029;-56
2022/09/29 08:51:40;;;;;;;12.30;3.35;;;27.30;57.10;;;;;;5070744;28;20031;-56
2022/09/29 08:54:20;;;;;;;9.38;2.35;;;27.50;55.90;;;;;;5076623;28;20461;-56
2022/09/29 08:56:45;;;;;;;6.28;1.60;;;27.70;55.90;;;;;;5076648;28;20035;-56
2022/09/29 08:59:11;;;;;;;9.75;2.50;;;27.70;56.00;;;;;;5076198;28;20458;-56
2022/09/29 09:02:12;;;;;;;3.97;1.55;;;27.70;53.60;;;;;;5075989;28;20054;-56
2022/09/29 09:04:45;;;;;;;9.77;2.60;;;27.40;54.10;;;;;;5034010;28;20064;-56
2022/09/29 09:07:25;;;;;;;6.35;1.98;;;27.30;54.20;;;;;;5063307;28;20107;-56
2022/09/29 09:10:10;;;;;;;3.00;1.05;;;27.30;51.80;;;;;;5059776;28;20028;-56
2022/09/29 09:13:10;;;;;;;20.13;4.75;;;26.90;52.70;;;;;;5076373;28;20048;-56
2022/09/29 09:15:56;;;;;;;18.63;3.60;;;27.20;58.30;;;;;;5064130;28;20078;-56
2022/09/29 09:18:44;;;;;;;18.40;3.65;;;27.90;54.80;;;;;;5065444;28;20033;-56
2022/09/29 09:21:18;;;;;;;5.20;1.27;;;28.30;51.50;;;;;;5069959;28;20029;-56
2022/09/29 09:23:54;;;;;;;16.67;3.40;;;27.70;51.40;;;;;;5073416;28;20113;-56
2022/09/29 09:26:42;;;;;;;15.45;2.58;;;28.00;51.60;;;;;;5074927;28;20100;-56
2022/09/29 09:29:27;;;;;;;7.18;1.75;;;28.50;50.70;;;;;;5061511;28;20558;-56
2022/09/29 09:31:59;;;;;;;9.02;2.50;;;28.90;49.60;;;;;;5069757;28;20332;-56
2022/09/29 09:34:54;;;;;;;5.93;1.30;;;29.60;49.80;;;;;;5061572;28;20035;-56
2022/09/29 09:37:25;;;;;;;20.23;3.65;;;29.90;48.40;;;;;;5074058;28;20040;-56
2022/09/29 09:40:00;;;;;;;5.47;0.98;;;30.40;48.00;;;;;;5066549;28;20454;-56
2022/09/29 09:42:36;;;;;;;9.52;1.88;;;30.30;44.80;;;;;;5070861;28;20043;-56
2022/09/29 09:45:16;;;;;;;57.95;8.20;;;30.90;46.80;;;;;;5075386;28;20481;-56
2022/09/29 09:47:52;;;;;;;16.75;2.75;;;30.80;43.90;;;;;;5073048;28;20043;-56
2022/09/29 09:50:20;;;;;;;10.10;1.73;;;31.00;44.90;;;;;;5066782;28;20043;-56
2022/09/29 09:52:50;;;;;;;3.75;1.20;;;30.80;42.30;;;;;;5070854;28;20115;-56
2022/09/29 09:55:25;;;;;;;8.65;1.90;;;30.30;41.60;;;;;;5062124;28;20040;-56
2022/09/29 09:58:08;;;;;;;9.25;2.97;;;29.50;41.30;;;;;;5071955;28;20070;-56
2022/09/29 10:00:40;;;;;;;9.10;1.67;;;29.70;44.00;;;;;;5066091;28;20043;-56
2022/09/29 10:03:08;;;;;;;8.80;1.83;;;29.80;43.00;;;;;;5057417;28;20047;-56
2022/09/29 10:05:40;;;;;;;4.45;1.77;;;30.20;44.00;;;;;;5075089;28;20725;-56
2022/09/29 10:08:11;;;;;;;6.03;1.67;;;30.00;42.60;;;;;;5073377;28;20085;-56
2022/09/29 10:10:40;;;;;;;8.18;1.52;;;30.00;41.30;;;;;;5075184;28;20093;-56
2022/09/29 10:13:11;;;;;;;11.27;2.60;;;29.90;42.10;;;;;;5074963;28;20083;-56
2022/09/29 10:15:40;;;;;;;;;;;29.50;45.00;;;;;;5070060;28;20028;-56
2022/09/29 10:18:15;;;;;;;2.78;1.23;;;30.00;43.80;;;;;;5075436;28;20362;-56
2022/09/29 10:20:41;;;;;;;3.40;1.30;;;31.00;41.90;;;;;;5066862;28;20040;-56
2022/09/29 10:23:29;;;;;;;7.38;2.85;;;30.30;39.80;;;;;;5066783;28;20029;-56
2022/09/29 10:26:15;;;;;;;7.85;1.90;;;30.90;43.70;;;;;;5083539;28;20041;-56
2022/09/29 10:28:50;;;;;;;4.20;1.27;;;30.90;42.20;;;;;;5063558;28;20066;-56
2022/09/29 10:31:33;;;;;;;2.92;1.02;;;30.90;40.80;;;;;;5072400;28;20043;-56
2022/09/29 10:34:16;;;;;;;11.45;2.50;;;31.60;41.40;;;;;;5066748;28;20029;-56
2022/09/29 10:36:55;;;;;;;3.95;0.77;;;31.10;39.90;;;;;;5054061;28;20095;-56
2022/09/29 10:39:37;;;;;;;4.60;1.20;;;31.50;39.80;;;;;;5074016;28;20115;-56
2022/09/29 10:42:13;;;;;;;7.18;1.88;;;32.30;40.70;;;;;;5071165;28;20090;-56
2022/09/29 10:44:39;;;;;;;6.18;1.70;;;32.70;38.50;;;;;;5073237;28;20031;-56
2022/09/29 10:47:13;;;;;;;8.25;1.58;;;32.30;38.00;;;;;;5074565;28;20134;-56
2022/09/29 10:49:40;;;;;;;8.52;1.63;;;31.60;38.90;;;;;;5072966;28;20080;-56
2022/09/29 10:52:21;;;;;;;6.05;1.30;;;31.70;38.00;;;;;;5074628;28;20033;-56
2022/09/29 10:54:58;;;;;;;3.17;0.93;;;31.30;39.90;;;;;;5074389;28;20028;-56
2022/09/29 10:57:30;;;;;;;7.45;1.85;;;31.60;38.00;;;;;;5074827;28;20363;-56
2022/09/29 10:59:57;;;;;;;6.45;1.20;;;31.50;40.90;;;;;;5074453;28;20035;-56
2022/09/29 11:02:31;;;;;;;7.88;1.90;;;32.00;40.10;;;;;;5070770;28;20498;-56
2022/09/29 11:05:04;;;;;;;7.93;2.17;;;32.50;37.80;;;;;;5065634;28;20024;-56
2022/09/29 11:07:33;;;;;;;1.88;0.60;;;32.90;38.00;;;;;;5073946;28;20027;-56
2022/09/29 11:09:59;;;;;;;24.75;4.15;;;31.70;36.80;;;;;;5074381;28;20078;-56
2022/09/29 11:12:37;;;;;;;29.33;4.32;;;31.70;36.90;;;;;;5074521;28;20055;-56
2022/09/29 11:15:26;;;;;;;23.17;5.25;;;31.40;40.40;;;;;;5073647;28;20032;-56
2022/09/29 11:17:52;;;;;;;7.80;2.40;;;31.00;40.30;;;;;;5072010;28;20029;-56
2022/09/29 11:20:32;;;;;;;11.48;3.05;;;30.50;39.60;;;;;;5068517;28;20463;-56
2022/09/29 11:23:01;;;;;;;16.35;3.13;;;30.00;39.90;;;;;;5073523;28;20028;-56
2022/09/29 11:25:46;;;;;;;22.13;3.35;;;29.80;41.30;;;;;;5078675;28;20064;-56
2022/09/29 11:28:25;;;;;;;18.98;3.47;;;29.30;42.70;;;;;;5072178;28;20028;-56
2022/09/29 11:31:10;;;;;;;8.27;2.35;;;29.10;44.80;;;;;;5053325;28;20029;-56
2022/09/29 11:33:55;;;;;;;14.65;2.38;;;28.90;43.50;;;;;;5067837;28;20090;-56
2022/09/29 11:36:49;;;;;;;11.82;2.70;;;29.00;45.10;;;;;;5071343;28;20108;-56
2022/09/29 11:39:34;;;;;;;17.88;3.97;;;29.00;44.50;;;;;;5073910;28;20024;-56
2022/09/29 11:42:03;;;;;;;8.20;1.42;;;29.30;45.30;;;;;;5074419;28;20028;-56
2022/09/29 11:44:49;;;;;;;4.38;1.45;;;29.10;42.90;;;;;;5075540;28;20466;-56
2022/09/29 11:47:39;;;;;;;7.18;1.65;;;29.30;41.80;;;;;;5069770;28;20097;-56
2022/09/29 11:50:30;;;;;;;6.93;1.50;;;29.30;42.40;;;;;;5060469;28;20432;-56
2022/09/29 11:53:31;;;;;;;8.60;1.85;;;28.90;42.30;;;;;;5068673;28;20326;-56
2022/09/29 11:56:25;;;;;;;11.57;2.30;;;28.20;40.80;;;;;;5046575;28;20048;-56
2022/09/29 11:59:06;;;;;;;6.88;1.40;;;27.90;43.70;;;;;;5074286;28;20102;-56
2022/09/29 12:01:42;;;;;;;4.70;1.05;;;27.60;42.70;;;;;;5077731;28;20086;-56
2022/09/29 12:04:11;;;;;;;3.28;1.05;;;27.30;42.50;;;;;;5077896;28;20032;-56
2022/09/29 12:06:52;;;;;;;8.57;1.90;;;26.90;44.10;;;;;;5076847;28;20378;-56
2022/09/29 12:10:00;;;;;;;9.50;2.08;;;26.90;46.10;;;;;;5077584;28;20025;-56
2022/09/29 12:12:41;;;;;;;12.02;3.42;;;26.60;45.00;;;;;;5077481;28;20119;-56
2022/09/29 12:15:21;;;;;;;16.92;2.33;;;26.60;46.90;;;;;;5077668;28;20056;-56
2022/09/29 12:17:49;;;;;;;;;;;26.40;47.00;;;;;;5077753;28;20032;-56
2022/09/29 12:20:38;;;;;;;18.70;3.45;;;26.40;47.00;;;;;;5076646;28;19908;-56
2022/09/29 12:23:09;;;;;;;8.52;2.03;;;26.60;49.00;;;;;;5072462;28;20039;-56
2022/09/29 12:25:39;;;;;;;21.33;3.80;;;26.70;48.30;;;;;;5080175;28;20064;-56
2022/09/29 12:28:16;;;;;;;11.57;2.42;;;26.90;48.80;;;;;;5076943;28;20036;-56
2022/09/29 12:30:50;;;;;;;10.63;2.47;;;26.90;47.30;;;;;;5072066;28;20389;-56
2022/09/29 12:33:24;;;;;;;4.38;1.55;;;26.80;46.80;;;;;;5065978;28;20096;-56
2022/09/29 12:36:43;;;;;;;13.70;3.58;;;26.90;48.60;;;;;;5057043;28;20070;-56
2022/09/29 12:39:20;;;;;;;26.05;5.65;;;27.20;47.90;;;;;;5056974;28;20040;-56
2022/09/29 12:42:09;;;;;;;11.50;1.55;;;27.30;49.00;;;;;;5063942;28;20037;-56
2022/09/29 12:44:43;;;;;;;9.07;1.40;;;27.40;47.20;;;;;;5065071;28;20112;-56
2022/09/29 12:47:28;;;;;;;8.93;2.22;;;27.10;45.70;;;;;;5067224;28;21706;-56
2022/09/29 12:50:08;;;;;;;8.93;1.80;;;27.30;44.70;;;;;;5062020;28;20032;-56
2022/09/29 12:53:13;;;;;;;9.75;1.50;;;27.70;45.60;;;;;;5063816;28;20013;-56
2022/09/29 12:56:02;;;;;;;9.43;2.53;;;27.50;43.80;;;;;;5055624;28;20047;-56
2022/09/29 12:58:45;;;;;;;11.18;1.80;;;27.40;45.60;;;;;;5073663;28;20386;-56
2022/09/29 13:01:43;;;;;;;11.07;2.45;;;27.40;43.90;;;;;;5068784;28;20028;-56
2022/09/29 13:05:00;;;;;;;15.82;3.47;;;27.30;44.40;;;;;;5054975;28;20032;-55
2022/09/29 13:07:38;;;;;;;3.50;0.70;;;27.50;46.30;;;;;;5032635;28;20793;-55